Riverview, Indiana
Current Conditions -  °F | °C
As of 2:35 AM on Sunday 23 Nov 2014 (Local Time) from KRSV Reporting Station
Scattered Clouds Scattered Clouds  
Wind Chill: 45°   Ceiling: Unl
Heat Index: 50°   Visibility: 10mi
Dew Point: 37°   Wind: 10mph
Humidity: 63%   Direction: 170°S
Pressure: 29.94"   Gusts: NA
Location:  39.2135°N, 87.5254°W
Report Text: KRSV 230735Z AUTO 17009KT 10SM SCT060 10/03 A2994 RMK AO2 T00980030
Loading
Personal Weather Stations






























Interactive Weather Map New forecast layout! Learn more

10-Day Weather Forecast

Advertisements
Track Severe Weather on mobile